createdAt,value
2022-09-20T00:01:32.055Z,97066.69
2022-09-20T00:04:06.752Z,97067.06
2022-09-20T00:06:36.057Z,97066.03
2022-09-20T00:09:05.399Z,97057.53
2022-09-20T00:11:36.715Z,97057.75
2022-09-20T00:14:08.599Z,97057.94
2022-09-20T00:16:41.277Z,97057.78
2022-09-20T00:19:17.915Z,97058.41
2022-09-20T00:21:46.063Z,97057.16
2022-09-20T00:24:14.538Z,97059.38
2022-09-20T00:26:42.582Z,97059.81
2022-09-20T00:29:12.665Z,97062.81
2022-09-20T00:31:42.704Z,97056.53
2022-09-20T00:34:30.201Z,97059.59
2022-09-20T00:36:58.228Z,97057.72
2022-09-20T00:39:26.523Z,97060.16
2022-09-20T00:41:54.539Z,97064.78
2022-09-20T00:44:56.493Z,97058.31
2022-09-20T00:47:35.325Z,97050.19
2022-09-20T00:50:25.168Z,97056.09
2022-09-20T00:53:00.603Z,97047.56
2022-09-20T00:55:29.827Z,97056.69
2022-09-20T00:57:59.584Z,97055.63
2022-09-20T01:00:28.978Z,97060.09
2022-09-20T01:03:02.857Z,97051.22
2022-09-20T01:05:32.654Z,97053.59
2022-09-20T01:08:00.670Z,97049.38
2022-09-20T01:10:28.964Z,97056.03
2022-09-20T01:12:57.303Z,97058.50
2022-09-20T01:15:28.714Z,97051.63
2022-09-20T01:17:59.829Z,97056.09
2022-09-20T01:20:32.907Z,97054.88
2022-09-20T01:23:19.509Z,97052.06
2022-09-20T01:26:42.669Z,97059.13
2022-09-20T01:29:26.864Z,97053.88
2022-09-20T01:32:00.948Z,97047.97
2022-09-20T01:34:35.583Z,97053.41
2022-09-20T01:37:13.221Z,97049.56
2022-09-20T01:39:51.990Z,97054.22
2022-09-20T01:42:24.114Z,97051.13
2022-09-20T01:45:05.714Z,97045.88
2022-09-20T01:47:43.334Z,97045.28
2022-09-20T01:50:25.482Z,97032.91
2022-09-20T01:53:27.086Z,97035.34
2022-09-20T01:56:28.202Z,97048.59
2022-09-20T01:59:41.758Z,97049.81
2022-09-20T02:02:50.475Z,97043.84
2022-09-20T02:05:54.494Z,97038.13
2022-09-20T02:08:55.122Z,97034.25
2022-09-20T02:11:24.463Z,97038.91
2022-09-20T02:14:23.618Z,97036.81
2022-09-20T02:16:56.617Z,97042.16
2022-09-20T02:20:02.004Z,97045.13
2022-09-20T02:23:01.337Z,97045.72
2022-09-20T02:26:03.906Z,97048.59
2022-09-20T02:28:53.324Z,97053.88
2022-09-20T02:31:51.709Z,97049.84
2022-09-20T02:34:52.306Z,97050.47
2022-09-20T02:37:55.946Z,97052.25
2022-09-20T02:40:47.854Z,97049.44
2022-09-20T02:43:27.235Z,97045.69
2022-09-20T02:46:04.967Z,97046.06
2022-09-20T02:48:43.650Z,97036.34
2022-09-20T02:51:24.061Z,97043.97
2022-09-20T02:54:07.942Z,97043.16
2022-09-20T02:56:46.421Z,97051.63
2022-09-20T02:59:28.983Z,97053.03
2022-09-20T03:02:09.627Z,97049.41
2022-09-20T03:04:56.461Z,97051.06
2022-09-20T03:07:35.519Z,97051.88
2022-09-20T03:10:17.994Z,97060.34
2022-09-20T03:13:01.926Z,97056.63
2022-09-20T03:15:40.822Z,97071.28
2022-09-20T03:18:15.743Z,97073.72
2022-09-20T03:20:59.376Z,97066.25
2022-09-20T03:23:48.019Z,97067.72
2022-09-20T03:26:32.395Z,97068.31
2022-09-20T03:29:06.349Z,97064.06
2022-09-20T03:31:57.781Z,97059.16
2022-09-20T03:34:45.299Z,97061.38
2022-09-20T03:37:45.459Z,97062.78
2022-09-20T03:40:53.007Z,97056.13
2022-09-20T03:43:43.038Z,97058.53
2022-09-20T03:46:19.495Z,97060.16
2022-09-20T03:49:38.738Z,97057.94
2022-09-20T03:52:21.988Z,97071.13
2022-09-20T03:55:32.598Z,97070.50
2022-09-20T03:58:24.206Z,97067.88
2022-09-20T04:01:17.937Z,97072.97
2022-09-20T04:03:55.271Z,97081.03
2022-09-20T04:06:50.779Z,97076.59
2022-09-20T04:09:54.028Z,97080.63
2022-09-20T04:12:33.933Z,97078.19
2022-09-20T04:15:20.808Z,97072.13
2022-09-20T04:18:00.741Z,97076.66
2022-09-20T04:20:38.572Z,97078.06
2022-09-20T04:23:21.493Z,97072.44
2022-09-20T04:25:52.195Z,97085.81
2022-09-20T04:28:27.945Z,97071.44
2022-09-20T04:31:04.791Z,97073.06
2022-09-20T04:33:40.953Z,97072.44
2022-09-20T04:36:29.358Z,97080.16
2022-09-20T04:39:12.603Z,97078.94
2022-09-20T04:42:33.942Z,97083.19
2022-09-20T04:45:37.140Z,97091.28
2022-09-20T04:49:00.916Z,97081.97
2022-09-20T04:52:04.952Z,97091.84
2022-09-20T04:55:14.669Z,97094.09
2022-09-20T04:58:36.885Z,97098.97
2022-09-20T05:02:12.408Z,97102.22
2022-09-20T05:05:26.851Z,97102.25
2022-09-20T05:08:41.296Z,97111.59
2022-09-20T05:11:48.669Z,97107.94
2022-09-20T05:14:50.466Z,97097.41
2022-09-20T05:17:59.936Z,97112.38
2022-09-20T05:21:01.488Z,97109.19
2022-09-20T05:24:13.164Z,97115.25
2022-09-20T05:26:59.288Z,97116.84
2022-09-20T05:29:37.136Z,97122.13
2022-09-20T05:32:13.437Z,97117.03
2022-09-20T05:34:51.030Z,97125.72
2022-09-20T05:37:33.502Z,97120.06
2022-09-20T05:40:13.611Z,97125.91
2022-09-20T05:42:51.573Z,97122.19
2022-09-20T05:45:47.992Z,97131.34
2022-09-20T05:48:23.989Z,97126.44
2022-09-20T05:51:03.541Z,97135.00
2022-09-20T05:54:13.871Z,97137.25
2022-09-20T05:56:50.816Z,97138.28
2022-09-20T05:59:31.638Z,97136.03
2022-09-20T06:02:18.350Z,97143.34
2022-09-20T06:04:58.927Z,97144.13
2022-09-20T06:07:41.947Z,97138.50
2022-09-20T06:11:11.878Z,97142.16
2022-09-20T06:14:03.732Z,97137.31
2022-09-20T06:16:44.118Z,97141.59
2022-09-20T06:19:24.815Z,97139.16
2022-09-20T06:21:57.603Z,97138.81
2022-09-20T06:24:37.565Z,97147.72
2022-09-20T06:27:15.769Z,97143.88
2022-09-20T06:29:53.562Z,97137.41
2022-09-20T06:32:21.594Z,97138.44
2022-09-20T06:34:50.988Z,97142.13
2022-09-20T06:37:54.249Z,97138.69
2022-09-20T06:40:52.270Z,97143.38
2022-09-20T06:43:21.807Z,97144.00
2022-09-20T06:45:50.123Z,97142.78
2022-09-20T06:48:19.254Z,97151.94
2022-09-20T06:50:47.555Z,97156.41
2022-09-20T06:53:25.127Z,97153.59
2022-09-20T06:55:53.574Z,97150.75
2022-09-20T06:58:24.865Z,97157.63
2022-09-20T07:00:53.456Z,97153.81
2022-09-20T07:03:21.628Z,97153.81
2022-09-20T07:05:50.519Z,97157.47
2022-09-20T07:08:18.724Z,97151.59
2022-09-20T07:10:47.025Z,97151.78
2022-09-20T07:13:15.169Z,97159.31
2022-09-20T07:15:44.708Z,97154.03
2022-09-20T07:18:13.008Z,97155.25
2022-09-20T07:20:41.747Z,97163.16
2022-09-20T07:23:10.111Z,97166.81
2022-09-20T07:25:38.582Z,97161.53
2022-09-20T07:28:07.398Z,97169.81
2022-09-20T07:30:35.413Z,97172.88
2022-09-20T07:33:04.883Z,97170.22
2022-09-20T07:35:32.881Z,97174.47
2022-09-20T07:38:01.873Z,97175.06
2022-09-20T07:40:30.466Z,97177.69
2022-09-20T07:42:58.669Z,97177.09
2022-09-20T07:45:27.022Z,97177.28
2022-09-20T07:47:55.340Z,97182.38
2022-09-20T07:50:24.831Z,97185.22
2022-09-20T07:52:53.154Z,97184.38
2022-09-20T07:55:21.302Z,97186.41
2022-09-20T07:57:49.613Z,97189.00
2022-09-20T08:00:18.086Z,97194.50
2022-09-20T08:02:46.111Z,97195.72
2022-09-20T08:05:14.117Z,97198.13
2022-09-20T08:07:43.494Z,97205.44
2022-09-20T08:10:12.031Z,97194.88
2022-09-20T08:15:29.216Z,97204.38
2022-09-20T08:17:57.464Z,97210.47
2022-09-20T08:20:25.616Z,97201.72
2022-09-20T08:23:19.337Z,97204.16
2022-09-20T08:25:44.148Z,97205.09
2022-09-20T08:28:12.324Z,97206.09
2022-09-20T08:30:40.708Z,97208.94
2022-09-20T08:33:09.248Z,97215.44
2022-09-20T08:35:38.699Z,97217.47
2022-09-20T08:41:01.992Z,97210.47
2022-09-20T08:43:37.779Z,97210.44
2022-09-20T08:46:11.242Z,97202.06
2022-09-20T08:48:39.595Z,97201.38
2022-09-20T08:51:11.016Z,97216.66
2022-09-20T08:53:49.272Z,97206.44
2022-09-20T08:56:18.974Z,97211.22
2022-09-20T08:58:47.528Z,97206.63
2022-09-20T09:01:23.031Z,97206.56
2022-09-20T09:03:52.611Z,97204.44
2022-09-20T09:06:24.683Z,97205.00
2022-09-20T09:08:56.783Z,97193.06
2022-09-20T09:11:25.069Z,97206.34
2022-09-20T09:13:58.165Z,97205.16
2022-09-20T09:16:35.322Z,97209.22
2022-09-20T09:19:33.293Z,97209.72
2022-09-20T09:22:04.068Z,97209.56
2022-09-20T09:24:33.949Z,97202.44
2022-09-20T09:27:16.301Z,97206.28
2022-09-20T09:29:51.980Z,97207.06
2022-09-20T09:32:28.510Z,97207.34
2022-09-20T09:34:57.406Z,97202.59
2022-09-20T09:37:30.512Z,97200.41
2022-09-20T09:40:16.388Z,97199.53
2022-09-20T09:42:53.295Z,97192.84
2022-09-20T09:45:38.475Z,97197.59
2022-09-20T09:48:23.652Z,97200.19
2022-09-20T09:51:07.361Z,97194.16
2022-09-20T09:53:36.650Z,97189.75
2022-09-20T09:56:48.434Z,97192.13
2022-09-20T09:59:40.209Z,97197.78
2022-09-20T10:02:42.977Z,97199.66
2022-09-20T10:05:20.138Z,97194.09
2022-09-20T10:07:56.454Z,97200.28
2022-09-20T10:10:34.234Z,97193.44
2022-09-20T10:13:19.903Z,97196.66
2022-09-20T10:15:57.403Z,97197.84
2022-09-20T10:18:44.517Z,97197.97
2022-09-20T10:21:41.905Z,97181.66
2022-09-20T10:24:31.818Z,97199.38
2022-09-20T10:27:35.024Z,97199.25
2022-09-20T10:30:14.423Z,97193.38
2022-09-20T10:33:02.823Z,97188.34
2022-09-20T10:35:46.846Z,97190.50
2022-09-20T10:38:19.742Z,97193.28
2022-09-20T10:41:45.410Z,97196.16
2022-09-20T10:44:40.168Z,97191.59
2022-09-20T10:47:18.123Z,97190.63
2022-09-20T10:49:57.750Z,97192.41
2022-09-20T10:52:42.864Z,97190.94
2022-09-20T10:55:26.206Z,97191.88
2022-09-20T10:58:45.897Z,97188.94
2022-09-20T11:01:23.829Z,97180.63
2022-09-20T11:04:18.310Z,97193.00
2022-09-20T11:06:56.101Z,97194.72
2022-09-20T11:09:30.862Z,97193.88
2022-09-20T11:12:12.420Z,97196.09
2022-09-20T11:14:45.037Z,97195.28
2022-09-20T11:17:19.582Z,97199.31
2022-09-20T11:20:06.188Z,97203.38
2022-09-20T11:22:41.884Z,97200.53
2022-09-20T11:25:20.899Z,97202.34
2022-09-20T11:27:56.604Z,97205.00
2022-09-20T11:30:25.812Z,97210.16
2022-09-20T11:33:01.513Z,97202.50
2022-09-20T11:35:36.969Z,97205.34
2022-09-20T11:38:14.858Z,97201.88
2022-09-20T11:40:49.940Z,97191.97
2022-09-20T11:43:20.960Z,97190.63
2022-09-20T11:45:56.585Z,97197.25
2022-09-20T11:48:29.612Z,97185.06
2022-09-20T11:51:49.536Z,97188.38
2022-09-20T11:54:42.200Z,97193.72
2022-09-20T11:57:15.759Z,97185.94
2022-09-20T11:59:51.097Z,97183.44
2022-09-20T12:02:24.749Z,97185.19
2022-09-20T12:04:53.877Z,97181.88
2022-09-20T12:07:28.153Z,97180.22
2022-09-20T12:10:01.208Z,97168.84
2022-09-20T12:12:37.523Z,97177.13
2022-09-20T12:15:22.791Z,97170.25
2022-09-20T12:18:28.602Z,97166.47
2022-09-20T12:21:04.464Z,97157.50
2022-09-20T12:24:19.134Z,97152.41
2022-09-20T12:26:49.578Z,97155.06
2022-09-20T12:30:15.988Z,97154.13
2022-09-20T12:32:57.371Z,97138.13
2022-09-20T12:36:16.826Z,97140.94
2022-09-20T12:38:59.977Z,97143.19
2022-09-20T12:41:29.268Z,97140.75
2022-09-20T12:44:06.586Z,97137.28
2022-09-20T12:46:43.546Z,97142.03
2022-09-20T12:49:44.006Z,97139.34
2022-09-20T12:52:58.008Z,97144.34
2022-09-20T12:55:36.727Z,97143.19
2022-09-20T12:58:11.633Z,97139.22
2022-09-20T13:00:45.245Z,97141.41
2022-09-20T13:03:28.379Z,97143.75
2022-09-20T13:06:26.485Z,97134.69
2022-09-20T13:09:05.598Z,97141.56
2022-09-20T13:11:42.705Z,97138.75
2022-09-20T13:14:15.401Z,97136.25
2022-09-20T13:16:53.372Z,97148.13
2022-09-20T13:19:25.858Z,97145.94
2022-09-20T13:22:02.478Z,97150.47
2022-09-20T13:24:35.574Z,97139.47
2022-09-20T13:27:09.786Z,97148.69
2022-09-20T13:29:42.260Z,97146.16
2022-09-20T13:32:23.621Z,97149.06
2022-09-20T13:35:07.618Z,97154.28
2022-09-20T13:37:37.560Z,97158.66
2022-09-20T13:40:10.026Z,97160.16
2022-09-20T13:42:39.422Z,97148.03
2022-09-20T13:45:15.064Z,97159.38
2022-09-20T13:47:45.061Z,97152.06
2022-09-20T13:50:22.573Z,97156.66
2022-09-20T13:52:53.785Z,97158.28
2022-09-20T13:55:35.929Z,97163.22
2022-09-20T13:58:09.517Z,97154.44
2022-09-20T14:00:46.064Z,97161.50
2022-09-20T14:03:18.688Z,97164.38
2022-09-20T14:05:49.314Z,97168.63
2022-09-20T14:08:24.447Z,97165.47
2022-09-20T14:11:07.284Z,97156.94
2022-09-20T14:13:42.685Z,97152.53
2022-09-20T14:16:12.408Z,97158.25
2022-09-20T14:18:42.321Z,97163.75
2022-09-20T14:21:12.363Z,97160.53
2022-09-20T14:23:52.507Z,97154.56
2022-09-20T14:26:27.682Z,97158.16
2022-09-20T14:28:57.306Z,97163.53
2022-09-20T14:31:29.780Z,97164.38
2022-09-20T14:34:00.731Z,97165.38
2022-09-20T14:36:31.997Z,97158.13
2022-09-20T14:39:06.559Z,97163.81
2022-09-20T14:41:38.293Z,97164.47
2022-09-20T14:44:24.010Z,97157.28
2022-09-20T14:46:52.911Z,97162.50
2022-09-20T14:49:31.677Z,97165.38
2022-09-20T14:52:36.644Z,97166.03
2022-09-20T14:55:28.235Z,97163.53
2022-09-20T14:58:03.172Z,97156.19
2022-09-20T15:00:50.522Z,97158.53
2022-09-20T15:03:27.580Z,97159.38
2022-09-20T15:05:56.030Z,97150.31
2022-09-20T15:08:24.627Z,97158.75
2022-09-20T15:10:52.814Z,97158.13
2022-09-20T15:13:20.813Z,97161.81
2022-09-20T15:15:53.628Z,97166.63
2022-09-20T15:18:25.273Z,97161.47
2022-09-20T15:20:55.319Z,97158.16
2022-09-20T15:23:23.874Z,97161.91
2022-09-20T15:25:54.367Z,97161.16
2022-09-20T15:28:23.030Z,97151.53
2022-09-20T15:30:53.522Z,97159.72
2022-09-20T15:33:22.637Z,97155.28
2022-09-20T15:35:51.227Z,97161.81
2022-09-20T15:38:20.938Z,97155.16
2022-09-20T15:40:50.365Z,97149.56
2022-09-20T15:43:21.894Z,97153.66
2022-09-20T15:45:54.267Z,97154.41
2022-09-20T15:48:25.220Z,97154.34
2022-09-20T15:51:04.471Z,97157.78
2022-09-20T15:53:35.372Z,97149.84
2022-09-20T15:56:05.878Z,97157.56
2022-09-20T15:58:36.517Z,97152.41
2022-09-20T16:01:08.811Z,97150.88
2022-09-20T16:03:37.631Z,97142.56
2022-09-20T16:06:08.375Z,97149.69
2022-09-20T16:08:40.137Z,97152.00
2022-09-20T16:11:10.958Z,97155.81
2022-09-20T16:13:39.577Z,97159.47
2022-09-20T16:16:14.053Z,97158.97
2022-09-20T16:19:00.508Z,97168.81
2022-09-20T16:21:29.053Z,97165.00
2022-09-20T16:23:58.124Z,97166.03
2022-09-20T16:26:29.146Z,97164.88
2022-09-20T16:28:57.741Z,97168.69
2022-09-20T16:31:44.820Z,97165.25
2022-09-20T16:34:16.932Z,97165.59
2022-09-20T16:36:45.862Z,97168.13
2022-09-20T16:39:15.404Z,97175.47
2022-09-20T16:41:45.348Z,97170.38
2022-09-20T16:44:13.901Z,97179.50
2022-09-20T16:46:44.464Z,97184.97
2022-09-20T16:49:14.132Z,97181.38
2022-09-20T16:51:44.073Z,97182.03
2022-09-20T16:54:14.218Z,97181.75
2022-09-20T16:56:45.285Z,97181.28
2022-09-20T16:59:15.722Z,97180.72
2022-09-20T17:01:46.044Z,97185.63
2022-09-20T17:04:14.916Z,97181.75
2022-09-20T17:06:44.147Z,97180.78
2022-09-20T17:09:12.611Z,97194.03
2022-09-20T17:11:44.584Z,97184.84
2022-09-20T17:14:13.869Z,97188.34
2022-09-20T17:16:47.463Z,97202.72
2022-09-20T17:19:18.319Z,97192.13
2022-09-20T17:21:50.243Z,97199.09
2022-09-20T17:24:20.487Z,97200.69
2022-09-20T17:26:50.415Z,97204.03
2022-09-20T17:29:21.530Z,97207.91
2022-09-20T17:31:55.566Z,97211.06
2022-09-20T17:34:26.052Z,97212.91
2022-09-20T17:36:55.273Z,97213.94
2022-09-20T17:39:24.338Z,97214.56
2022-09-20T17:41:53.606Z,97213.38
2022-09-20T17:44:21.830Z,97214.84
2022-09-20T17:46:54.236Z,97214.84
2022-09-20T17:49:24.238Z,97214.03
2022-09-20T17:51:54.358Z,97218.34
2022-09-20T17:54:23.292Z,97222.03
2022-09-20T17:56:55.550Z,97214.91
2022-09-20T17:59:24.533Z,97220.84
2022-09-20T18:01:55.387Z,97222.44
2022-09-20T18:04:24.425Z,97230.44
2022-09-20T18:06:54.881Z,97227.66
2022-09-20T18:09:27.222Z,97231.50
2022-09-20T18:11:57.312Z,97234.22
2022-09-20T18:14:32.187Z,97231.38
2022-09-20T18:17:02.091Z,97232.66
2022-09-20T18:19:40.076Z,97242.47
2022-09-20T18:22:08.159Z,97242.91
2022-09-20T18:24:36.141Z,97249.66
2022-09-20T18:27:04.859Z,97252.69
2022-09-20T18:29:36.686Z,97256.00
2022-09-20T18:32:08.606Z,97255.59
2022-09-20T18:34:36.601Z,97252.19
2022-09-20T18:37:10.020Z,97259.53
2022-09-20T18:39:40.695Z,97262.19
2022-09-20T18:42:09.039Z,97266.59
2022-09-20T18:44:37.188Z,97261.53
2022-09-20T18:47:08.057Z,97267.84
2022-09-20T18:49:39.328Z,97273.38
2022-09-20T18:52:09.268Z,97281.94
2022-09-20T18:54:39.045Z,97278.25
2022-09-20T18:57:13.494Z,97282.13
2022-09-20T18:59:49.726Z,97286.84
2022-09-20T19:02:49.333Z,97287.22
2022-09-20T19:05:25.566Z,97294.56
2022-09-20T19:08:11.902Z,97296.00
2022-09-20T19:10:48.528Z,97295.59
2022-09-20T19:13:32.343Z,97298.66
2022-09-20T19:16:18.657Z,97301.50
2022-09-20T19:19:20.947Z,97309.03
2022-09-20T19:22:01.682Z,97309.22
2022-09-20T19:24:47.037Z,97306.81
2022-09-20T19:27:15.885Z,97314.34
2022-09-20T19:29:44.973Z,97316.78
2022-09-20T19:32:21.018Z,97327.75
2022-09-20T19:34:55.781Z,97319.66
2022-09-20T19:37:36.551Z,97326.56
2022-09-20T19:40:29.841Z,97330.66
2022-09-20T19:43:23.587Z,97327.38
2022-09-20T19:46:03.304Z,97325.97
2022-09-20T19:48:38.982Z,97333.50
2022-09-20T19:51:13.903Z,97334.91
2022-09-20T19:53:42.835Z,97337.56
2022-09-20T19:56:25.173Z,97343.25
2022-09-20T19:58:55.888Z,97337.53
2022-09-20T20:01:27.395Z,97331.66
2022-09-20T20:03:56.713Z,97336.75
2022-09-20T20:06:34.183Z,97331.88
2022-09-20T20:09:09.170Z,97339.19
2022-09-20T20:11:46.986Z,97334.31
2022-09-20T20:14:29.510Z,97344.66
2022-09-20T20:17:11.398Z,97341.41
2022-09-20T20:19:59.663Z,97340.81
2022-09-20T20:23:17.960Z,97352.16
2022-09-20T20:25:59.894Z,97344.88
2022-09-20T20:28:28.074Z,97339.78
2022-09-20T20:30:59.777Z,97339.78
2022-09-20T20:33:31.855Z,97345.06
2022-09-20T20:36:06.058Z,97346.88
2022-09-20T20:38:37.714Z,97354.81
2022-09-20T20:41:08.575Z,97349.91
2022-09-20T20:43:38.840Z,97364.06
2022-09-20T20:46:14.809Z,97361.03
2022-09-20T20:48:43.214Z,97366.03
2022-09-20T20:51:16.171Z,97372.72
2022-09-20T20:53:48.024Z,97373.94
2022-09-20T20:56:19.355Z,97359.69
2022-09-20T20:58:48.864Z,97362.97
2022-09-20T21:01:19.574Z,97360.03
2022-09-20T21:03:50.060Z,97358.03
2022-09-20T21:06:18.370Z,97356.59
2022-09-20T21:08:50.052Z,97353.75
2022-09-20T21:11:21.816Z,97354.78
2022-09-20T21:13:50.053Z,97353.63
2022-09-20T21:16:20.616Z,97354.56
2022-09-20T21:18:50.659Z,97361.25
2022-09-20T21:21:21.724Z,97360.84
2022-09-20T21:23:54.261Z,97364.41
2022-09-20T21:26:24.593Z,97357.31
2022-09-20T21:28:57.335Z,97358.31
2022-09-20T21:31:25.945Z,97365.16
2022-09-20T21:33:54.892Z,97368.38
2022-09-20T21:36:26.005Z,97365.75
2022-09-20T21:38:55.850Z,97365.78
2022-09-20T21:41:25.963Z,97366.44
2022-09-20T21:43:57.238Z,97362.75
2022-09-20T21:46:28.280Z,97368.00
2022-09-20T21:48:58.444Z,97365.56
2022-09-20T21:51:29.738Z,97365.75
2022-09-20T21:54:01.360Z,97364.75
2022-09-20T21:56:32.060Z,97362.53
2022-09-20T21:59:02.546Z,97359.63
2022-09-20T22:01:33.879Z,97354.34
2022-09-20T22:04:05.845Z,97358.78
2022-09-20T22:06:35.925Z,97363.44
2022-09-20T22:09:08.885Z,97361.41
2022-09-20T22:11:40.819Z,97362.88
2022-09-20T22:14:10.591Z,97362.88
2022-09-20T22:16:40.722Z,97361.41
2022-09-20T22:19:11.832Z,97356.34
2022-09-20T22:21:42.903Z,97354.84
2022-09-20T22:24:14.154Z,97363.09
2022-09-20T22:26:44.571Z,97356.03
2022-09-20T22:29:12.934Z,97357.03
2022-09-20T22:31:45.345Z,97355.78
2022-09-20T22:34:17.511Z,97346.84
2022-09-20T22:36:46.586Z,97342.72
2022-09-20T22:39:17.042Z,97345.28
2022-09-20T22:41:47.684Z,97346.50
2022-09-20T22:44:16.289Z,97348.31
2022-09-20T22:46:44.310Z,97355.16
2022-09-20T22:49:12.517Z,97354.16
2022-09-20T22:51:40.618Z,97346.25
2022-09-20T22:54:10.338Z,97351.28
2022-09-20T22:56:41.383Z,97349.16
2022-09-20T22:59:12.223Z,97353.03
2022-09-20T23:01:43.187Z,97353.41
2022-09-20T23:04:14.059Z,97351.41
2022-09-20T23:06:44.835Z,97351.00
2022-09-20T23:09:15.602Z,97349.03
2022-09-20T23:11:45.750Z,97351.66
2022-09-20T23:14:17.328Z,97354.06
2022-09-20T23:16:46.109Z,97350.34
2022-09-20T23:19:15.532Z,97345.88
2022-09-20T23:21:44.747Z,97346.91
2022-09-20T23:24:15.090Z,97350.66
2022-09-20T23:26:45.318Z,97352.75
2022-09-20T23:29:15.969Z,97347.03
2022-09-20T23:31:47.120Z,97357.19
2022-09-20T23:34:17.225Z,97350.31
2022-09-20T23:36:46.341Z,97353.03
2022-09-20T23:39:15.451Z,97358.28
2022-09-20T23:41:50.001Z,97349.94
2022-09-20T23:44:18.874Z,97355.78
2022-09-20T23:46:46.856Z,97361.59
2022-09-20T23:49:14.900Z,97359.16
2022-09-20T23:51:42.939Z,97354.84
2022-09-20T23:54:10.918Z,97362.44
2022-09-20T23:56:40.161Z,97360.28
2022-09-20T23:59:09.463Z,97351.56
